sensor_id;sensor_type;location;lat;lon;timestamp;P1;durP1;ratioP1;P2;durP2;ratioP2
78895;SDS011;68284;59.124;37.910;2023-11-21T00:01:32;74.15;;;52.25;;
78895;SDS011;68284;59.124;37.910;2023-11-21T00:04:00;68.30;;;50.15;;
78895;SDS011;68284;59.124;37.910;2023-11-21T00:06:29;68.70;;;50.13;;
78895;SDS011;68284;59.124;37.910;2023-11-21T00:08:56;69.90;;;49.90;;
78895;SDS011;68284;59.124;37.910;2023-11-21T00:11:22;75.95;;;54.45;;
78895;SDS011;68284;59.124;37.910;2023-11-21T00:13:50;73.35;;;52.42;;
78895;SDS011;68284;59.124;37.910;2023-11-21T00:16:17;72.95;;;52.42;;
78895;SDS011;68284;59.124;37.910;2023-11-21T00:18:44;73.72;;;52.53;;
78895;SDS011;68284;59.124;37.910;2023-11-21T00:21:12;71.60;;;52.33;;
78895;SDS011;68284;59.124;37.910;2023-11-21T00:23:40;65.35;;;49.45;;
78895;SDS011;68284;59.124;37.910;2023-11-21T00:26:09;70.88;;;51.35;;
78895;SDS011;68284;59.124;37.910;2023-11-21T00:28:41;71.93;;;52.15;;
78895;SDS011;68284;59.124;37.910;2023-11-21T00:31:09;75.13;;;52.75;;
78895;SDS011;68284;59.124;37.910;2023-11-21T00:33:39;73.20;;;51.60;;
78895;SDS011;68284;59.124;37.910;2023-11-21T00:36:07;80.68;;;54.58;;
78895;SDS011;68284;59.124;37.910;2023-11-21T00:38:36;75.75;;;52.25;;
78895;SDS011;68284;59.124;37.910;2023-11-21T00:41:12;79.72;;;54.40;;
78895;SDS011;68284;59.124;37.910;2023-11-21T00:43:39;78.95;;;54.00;;
78895;SDS011;68284;59.124;37.910;2023-11-21T00:46:06;83.97;;;55.65;;
78895;SDS011;68284;59.124;37.910;2023-11-21T00:48:36;80.80;;;53.63;;
78895;SDS011;68284;59.124;37.910;2023-11-21T00:51:03;86.20;;;56.63;;
78895;SDS011;68284;59.124;37.910;2023-11-21T00:53:32;93.82;;;59.67;;
78895;SDS011;68284;59.124;37.910;2023-11-21T00:56:01;92.78;;;58.00;;
78895;SDS011;68284;59.124;37.910;2023-11-21T00:58:30;91.80;;;56.60;;
78895;SDS011;68284;59.124;37.910;2023-11-21T01:01:00;92.57;;;57.13;;
78895;SDS011;68284;59.124;37.910;2023-11-21T01:03:27;98.97;;;58.30;;
78895;SDS011;68284;59.124;37.910;2023-11-21T01:05:53;99.93;;;59.28;;
78895;SDS011;68284;59.124;37.910;2023-11-21T01:08:21;98.75;;;58.75;;
78895;SDS011;68284;59.124;37.910;2023-11-21T01:10:52;98.30;;;59.08;;
78895;SDS011;68284;59.124;37.910;2023-11-21T01:13:20;101.97;;;61.42;;
78895;SDS011;68284;59.124;37.910;2023-11-21T01:15:48;190.98;;;81.13;;
78895;SDS011;68284;59.124;37.910;2023-11-21T01:18:15;240.15;;;92.68;;
78895;SDS011;68284;59.124;37.910;2023-11-21T01:20:49;223.68;;;88.93;;
78895;SDS011;68284;59.124;37.910;2023-11-21T01:23:23;186.48;;;81.72;;
78895;SDS011;68284;59.124;37.910;2023-11-21T01:25:52;192.85;;;83.47;;
78895;SDS011;68284;59.124;37.910;2023-11-21T01:28:21;187.85;;;81.88;;
78895;SDS011;68284;59.124;37.910;2023-11-21T01:30:50;190.73;;;83.35;;
78895;SDS011;68284;59.124;37.910;2023-11-21T01:33:20;192.38;;;82.05;;
78895;SDS011;68284;59.124;37.910;2023-11-21T01:35:50;206.80;;;85.72;;
78895;SDS011;68284;59.124;37.910;2023-11-21T01:38:23;207.45;;;85.60;;
78895;SDS011;68284;59.124;37.910;2023-11-21T01:40:53;214.40;;;88.35;;
78895;SDS011;68284;59.124;37.910;2023-11-21T01:43:22;203.27;;;85.65;;
78895;SDS011;68284;59.124;37.910;2023-11-21T01:45:54;221.35;;;89.40;;
78895;SDS011;68284;59.124;37.910;2023-11-21T01:48:28;205.38;;;85.85;;
78895;SDS011;68284;59.124;37.910;2023-11-21T01:50:58;204.27;;;85.90;;
78895;SDS011;68284;59.124;37.910;2023-11-21T01:56:00;218.50;;;91.60;;
78895;SDS011;68284;59.124;37.910;2023-11-21T01:58:27;204.38;;;88.20;;
78895;SDS011;68284;59.124;37.910;2023-11-21T02:00:55;186.95;;;81.90;;
78895;SDS011;68284;59.124;37.910;2023-11-21T02:03:26;211.60;;;87.07;;
78895;SDS011;68284;59.124;37.910;2023-11-21T02:05:53;224.88;;;91.57;;
78895;SDS011;68284;59.124;37.910;2023-11-21T02:08:30;226.77;;;91.60;;
78895;SDS011;68284;59.124;37.910;2023-11-21T02:11:05;186.85;;;81.18;;
78895;SDS011;68284;59.124;37.910;2023-11-21T02:13:33;198.18;;;85.63;;
78895;SDS011;68284;59.124;37.910;2023-11-21T02:16:03;193.80;;;82.53;;
78895;SDS011;68284;59.124;37.910;2023-11-21T02:18:31;212.23;;;87.20;;
78895;SDS011;68284;59.124;37.910;2023-11-21T02:20:59;216.60;;;89.07;;
78895;SDS011;68284;59.124;37.910;2023-11-21T02:23:32;223.70;;;88.97;;
78895;SDS011;68284;59.124;37.910;2023-11-21T02:26:00;194.95;;;83.25;;
78895;SDS011;68284;59.124;37.910;2023-11-21T02:28:30;183.02;;;81.43;;
78895;SDS011;68284;59.124;37.910;2023-11-21T02:30:58;178.15;;;79.57;;
78895;SDS011;68284;59.124;37.910;2023-11-21T02:33:50;175.70;;;76.60;;
78895;SDS011;68284;59.124;37.910;2023-11-21T02:36:19;179.15;;;78.50;;
78895;SDS011;68284;59.124;37.910;2023-11-21T02:38:48;177.30;;;80.00;;
78895;SDS011;68284;59.124;37.910;2023-11-21T02:41:21;181.20;;;81.40;;
78895;SDS011;68284;59.124;37.910;2023-11-21T02:43:56;180.80;;;80.43;;
78895;SDS011;68284;59.124;37.910;2023-11-21T02:46:35;182.40;;;81.57;;
78895;SDS011;68284;59.124;37.910;2023-11-21T02:49:09;167.23;;;76.55;;
78895;SDS011;68284;59.124;37.910;2023-11-21T02:51:41;166.82;;;76.03;;
78895;SDS011;68284;59.124;37.910;2023-11-21T02:54:14;207.10;;;86.45;;
78895;SDS011;68284;59.124;37.910;2023-11-21T02:56:45;181.10;;;79.60;;
78895;SDS011;68284;59.124;37.910;2023-11-21T02:59:17;171.65;;;78.47;;
78895;SDS011;68284;59.124;37.910;2023-11-21T03:01:46;256.42;;;99.72;;
78895;SDS011;68284;59.124;37.910;2023-11-21T03:04:18;197.70;;;83.93;;
78895;SDS011;68284;59.124;37.910;2023-11-21T03:06:46;198.35;;;84.28;;
78895;SDS011;68284;59.124;37.910;2023-11-21T03:09:13;181.60;;;79.07;;
78895;SDS011;68284;59.124;37.910;2023-11-21T03:11:42;170.80;;;77.30;;
78895;SDS011;68284;59.124;37.910;2023-11-21T03:14:14;169.27;;;76.95;;
78895;SDS011;68284;59.124;37.910;2023-11-21T03:16:43;169.88;;;79.88;;
78895;SDS011;68284;59.124;37.910;2023-11-21T03:19:13;169.15;;;77.40;;
78895;SDS011;68284;59.124;37.910;2023-11-21T03:21:44;169.50;;;76.88;;
78895;SDS011;68284;59.124;37.910;2023-11-21T03:27:12;155.27;;;74.07;;
78895;SDS011;68284;59.124;37.910;2023-11-21T03:30:14;160.60;;;74.38;;
78895;SDS011;68284;59.124;37.910;2023-11-21T03:32:42;157.57;;;73.53;;
78895;SDS011;68284;59.124;37.910;2023-11-21T03:38:16;160.27;;;75.55;;
78895;SDS011;68284;59.124;37.910;2023-11-21T03:40:47;156.55;;;75.63;;
78895;SDS011;68284;59.124;37.910;2023-11-21T03:43:19;154.25;;;73.25;;
78895;SDS011;68284;59.124;37.910;2023-11-21T03:45:47;149.95;;;70.90;;
78895;SDS011;68284;59.124;37.910;2023-11-21T03:48:19;152.50;;;75.40;;
78895;SDS011;68284;59.124;37.910;2023-11-21T03:50:53;142.75;;;69.65;;
78895;SDS011;68284;59.124;37.910;2023-11-21T03:53:22;144.73;;;71.85;;
78895;SDS011;68284;59.124;37.910;2023-11-21T03:55:58;145.70;;;73.05;;
78895;SDS011;68284;59.124;37.910;2023-11-21T03:58:32;141.68;;;72.18;;
78895;SDS011;68284;59.124;37.910;2023-11-21T04:01:02;145.95;;;70.30;;
78895;SDS011;68284;59.124;37.910;2023-11-21T04:03:31;145.73;;;71.35;;
78895;SDS011;68284;59.124;37.910;2023-11-21T04:06:02;147.70;;;72.85;;
78895;SDS011;68284;59.124;37.910;2023-11-21T04:08:38;148.07;;;72.90;;
78895;SDS011;68284;59.124;37.910;2023-11-21T04:11:09;141.15;;;68.75;;
78895;SDS011;68284;59.124;37.910;2023-11-21T04:13:52;143.57;;;70.97;;
78895;SDS011;68284;59.124;37.910;2023-11-21T04:16:52;142.50;;;68.45;;
78895;SDS011;68284;59.124;37.910;2023-11-21T04:19:23;139.80;;;69.85;;
78895;SDS011;68284;59.124;37.910;2023-11-21T04:22:04;133.45;;;67.28;;
78895;SDS011;68284;59.124;37.910;2023-11-21T04:24:40;133.95;;;67.50;;
78895;SDS011;68284;59.124;37.910;2023-11-21T04:27:21;130.77;;;67.53;;
78895;SDS011;68284;59.124;37.910;2023-11-21T04:29:53;130.00;;;66.55;;
78895;SDS011;68284;59.124;37.910;2023-11-21T04:32:21;127.10;;;66.45;;
78895;SDS011;68284;59.124;37.910;2023-11-21T04:34:56;124.32;;;66.35;;
78895;SDS011;68284;59.124;37.910;2023-11-21T04:37:27;124.20;;;66.28;;
78895;SDS011;68284;59.124;37.910;2023-11-21T04:39:54;123.63;;;65.18;;
78895;SDS011;68284;59.124;37.910;2023-11-21T04:42:30;119.13;;;64.75;;
78895;SDS011;68284;59.124;37.910;2023-11-21T04:45:04;114.05;;;63.08;;
78895;SDS011;68284;59.124;37.910;2023-11-21T04:47:53;121.82;;;66.70;;
78895;SDS011;68284;59.124;37.910;2023-11-21T04:53:07;128.13;;;67.97;;
78895;SDS011;68284;59.124;37.910;2023-11-21T04:55:36;118.97;;;62.53;;
78895;SDS011;68284;59.124;37.910;2023-11-21T04:58:09;118.78;;;63.92;;
78895;SDS011;68284;59.124;37.910;2023-11-21T05:00:51;118.03;;;62.60;;
78895;SDS011;68284;59.124;37.910;2023-11-21T05:03:29;112.80;;;61.60;;
78895;SDS011;68284;59.124;37.910;2023-11-21T05:05:59;113.28;;;61.38;;
78895;SDS011;68284;59.124;37.910;2023-11-21T05:08:31;121.47;;;66.00;;
78895;SDS011;68284;59.124;37.910;2023-11-21T05:11:03;116.85;;;62.65;;
78895;SDS011;68284;59.124;37.910;2023-11-21T05:13:34;118.45;;;65.07;;
78895;SDS011;68284;59.124;37.910;2023-11-21T05:16:02;207.85;;;85.28;;
78895;SDS011;68284;59.124;37.910;2023-11-21T05:18:32;175.63;;;77.68;;
78895;SDS011;68284;59.124;37.910;2023-11-21T05:21:01;176.50;;;76.22;;
78895;SDS011;68284;59.124;37.910;2023-11-21T05:23:31;195.70;;;83.18;;
78895;SDS011;68284;59.124;37.910;2023-11-21T05:26:00;152.20;;;71.03;;
78895;SDS011;68284;59.124;37.910;2023-11-21T05:28:26;175.90;;;78.88;;
78895;SDS011;68284;59.124;37.910;2023-11-21T05:30:58;181.57;;;78.80;;
78895;SDS011;68284;59.124;37.910;2023-11-21T05:33:28;139.98;;;69.22;;
78895;SDS011;68284;59.124;37.910;2023-11-21T05:35:55;142.73;;;67.95;;
78895;SDS011;68284;59.124;37.910;2023-11-21T05:38:23;145.32;;;70.28;;
78895;SDS011;68284;59.124;37.910;2023-11-21T05:41:03;139.00;;;68.22;;
78895;SDS011;68284;59.124;37.910;2023-11-21T05:43:32;143.85;;;69.65;;
78895;SDS011;68284;59.124;37.910;2023-11-21T05:46:03;142.90;;;70.45;;
78895;SDS011;68284;59.124;37.910;2023-11-21T05:48:30;139.68;;;69.40;;
78895;SDS011;68284;59.124;37.910;2023-11-21T05:51:01;135.40;;;68.43;;
78895;SDS011;68284;59.124;37.910;2023-11-21T05:53:34;134.57;;;67.38;;
78895;SDS011;68284;59.124;37.910;2023-11-21T05:56:04;137.05;;;68.75;;
78895;SDS011;68284;59.124;37.910;2023-11-21T05:58:36;131.35;;;66.80;;
78895;SDS011;68284;59.124;37.910;2023-11-21T06:01:08;130.70;;;67.47;;
78895;SDS011;68284;59.124;37.910;2023-11-21T06:03:46;132.05;;;68.43;;
78895;SDS011;68284;59.124;37.910;2023-11-21T06:06:17;122.10;;;64.47;;
78895;SDS011;68284;59.124;37.910;2023-11-21T06:08:45;124.30;;;66.15;;
78895;SDS011;68284;59.124;37.910;2023-11-21T06:11:15;130.32;;;67.53;;
78895;SDS011;68284;59.124;37.910;2023-11-21T06:13:44;120.65;;;65.22;;
78895;SDS011;68284;59.124;37.910;2023-11-21T06:16:13;120.57;;;64.00;;
78895;SDS011;68284;59.124;37.910;2023-11-21T06:18:42;121.03;;;64.30;;
78895;SDS011;68284;59.124;37.910;2023-11-21T06:21:16;121.32;;;63.80;;
78895;SDS011;68284;59.124;37.910;2023-11-21T06:23:46;118.80;;;65.05;;
78895;SDS011;68284;59.124;37.910;2023-11-21T06:26:14;111.45;;;62.75;;
78895;SDS011;68284;59.124;37.910;2023-11-21T06:28:54;109.95;;;61.95;;
78895;SDS011;68284;59.124;37.910;2023-11-21T06:31:31;111.53;;;61.90;;
78895;SDS011;68284;59.124;37.910;2023-11-21T06:34:03;115.10;;;63.45;;
78895;SDS011;68284;59.124;37.910;2023-11-21T06:36:33;108.68;;;61.30;;
78895;SDS011;68284;59.124;37.910;2023-11-21T06:39:24;111.20;;;63.22;;
78895;SDS011;68284;59.124;37.910;2023-11-21T06:41:54;109.53;;;61.28;;
78895;SDS011;68284;59.124;37.910;2023-11-21T06:44:26;104.82;;;59.50;;
78895;SDS011;68284;59.124;37.910;2023-11-21T06:47:18;107.82;;;60.78;;
78895;SDS011;68284;59.124;37.910;2023-11-21T06:50:06;100.20;;;58.65;;
78895;SDS011;68284;59.124;37.910;2023-11-21T06:52:56;101.28;;;60.50;;
78895;SDS011;68284;59.124;37.910;2023-11-21T06:55:23;98.80;;;57.85;;
78895;SDS011;68284;59.124;37.910;2023-11-21T06:57:54;92.80;;;57.03;;
78895;SDS011;68284;59.124;37.910;2023-11-21T07:00:25;96.38;;;58.25;;
78895;SDS011;68284;59.124;37.910;2023-11-21T07:03:00;94.60;;;58.30;;
78895;SDS011;68284;59.124;37.910;2023-11-21T07:05:32;92.22;;;56.67;;
78895;SDS011;68284;59.124;37.910;2023-11-21T07:08:09;94.18;;;57.90;;
78895;SDS011;68284;59.124;37.910;2023-11-21T07:10:41;88.28;;;55.72;;
78895;SDS011;68284;59.124;37.910;2023-11-21T07:13:15;90.60;;;59.08;;
78895;SDS011;68284;59.124;37.910;2023-11-21T07:15:42;85.13;;;55.20;;
78895;SDS011;68284;59.124;37.910;2023-11-21T07:18:10;82.28;;;56.33;;
78895;SDS011;68284;59.124;37.910;2023-11-21T07:20:40;84.10;;;55.55;;
78895;SDS011;68284;59.124;37.910;2023-11-21T07:23:17;87.93;;;58.63;;
78895;SDS011;68284;59.124;37.910;2023-11-21T07:25:47;81.07;;;53.38;;
78895;SDS011;68284;59.124;37.910;2023-11-21T07:28:17;71.63;;;50.47;;
78895;SDS011;68284;59.124;37.910;2023-11-21T07:30:50;74.57;;;52.00;;
78895;SDS011;68284;59.124;37.910;2023-11-21T07:33:16;75.88;;;51.75;;
78895;SDS011;68284;59.124;37.910;2023-11-21T07:39:07;86.28;;;55.40;;
78895;SDS011;68284;59.124;37.910;2023-11-21T07:41:37;80.03;;;54.25;;
78895;SDS011;68284;59.124;37.910;2023-11-21T07:44:14;76.68;;;52.35;;
78895;SDS011;68284;59.124;37.910;2023-11-21T07:46:47;77.97;;;53.13;;
78895;SDS011;68284;59.124;37.910;2023-11-21T07:49:17;78.75;;;53.47;;
78895;SDS011;68284;59.124;37.910;2023-11-21T07:51:46;76.55;;;52.92;;
78895;SDS011;68284;59.124;37.910;2023-11-21T07:54:15;68.50;;;51.08;;
78895;SDS011;68284;59.124;37.910;2023-11-21T07:56:45;64.30;;;49.13;;
78895;SDS011;68284;59.124;37.910;2023-11-21T07:59:12;71.30;;;51.53;;
78895;SDS011;68284;59.124;37.910;2023-11-21T08:01:39;66.15;;;50.92;;
78895;SDS011;68284;59.124;37.910;2023-11-21T08:04:07;63.17;;;49.80;;
78895;SDS011;68284;59.124;37.910;2023-11-21T08:06:33;62.78;;;49.13;;
78895;SDS011;68284;59.124;37.910;2023-11-21T08:09:05;73.88;;;51.08;;
78895;SDS011;68284;59.124;37.910;2023-11-21T08:11:45;69.97;;;52.53;;
78895;SDS011;68284;59.124;37.910;2023-11-21T08:14:13;67.72;;;50.58;;
78895;SDS011;68284;59.124;37.910;2023-11-21T08:16:40;66.03;;;49.08;;
78895;SDS011;68284;59.124;37.910;2023-11-21T08:19:13;63.67;;;48.53;;
78895;SDS011;68284;59.124;37.910;2023-11-21T08:21:44;68.03;;;49.33;;
78895;SDS011;68284;59.124;37.910;2023-11-21T08:24:11;69.78;;;50.83;;
78895;SDS011;68284;59.124;37.910;2023-11-21T08:26:39;70.35;;;50.42;;
78895;SDS011;68284;59.124;37.910;2023-11-21T08:29:08;69.55;;;49.78;;
78895;SDS011;68284;59.124;37.910;2023-11-21T08:31:43;75.30;;;51.97;;
78895;SDS011;68284;59.124;37.910;2023-11-21T08:34:20;75.03;;;52.15;;
78895;SDS011;68284;59.124;37.910;2023-11-21T08:36:52;74.55;;;51.72;;
78895;SDS011;68284;59.124;37.910;2023-11-21T08:39:23;77.35;;;53.40;;
78895;SDS011;68284;59.124;37.910;2023-11-21T08:42:29;85.18;;;55.65;;
78895;SDS011;68284;59.124;37.910;2023-11-21T08:44:57;83.80;;;55.97;;
78895;SDS011;68284;59.124;37.910;2023-11-21T08:48:02;92.60;;;56.45;;
78895;SDS011;68284;59.124;37.910;2023-11-21T08:50:31;89.93;;;57.15;;
78895;SDS011;68284;59.124;37.910;2023-11-21T08:53:00;87.95;;;55.78;;
78895;SDS011;68284;59.124;37.910;2023-11-21T08:55:34;89.68;;;55.78;;
78895;SDS011;68284;59.124;37.910;2023-11-21T08:58:17;89.95;;;57.08;;
78895;SDS011;68284;59.124;37.910;2023-11-21T09:01:03;92.90;;;57.22;;
78895;SDS011;68284;59.124;37.910;2023-11-21T09:03:33;167.65;;;76.90;;
78895;SDS011;68284;59.124;37.910;2023-11-21T09:06:03;125.97;;;64.43;;
78895;SDS011;68284;59.124;37.910;2023-11-21T09:08:40;146.82;;;71.25;;
78895;SDS011;68284;59.124;37.910;2023-11-21T09:11:19;135.00;;;67.53;;
78895;SDS011;68284;59.124;37.910;2023-11-21T09:14:16;148.63;;;72.78;;
78895;SDS011;68284;59.124;37.910;2023-11-21T09:16:50;130.82;;;67.53;;
78895;SDS011;68284;59.124;37.910;2023-11-21T09:19:37;124.85;;;66.28;;
78895;SDS011;68284;59.124;37.910;2023-11-21T09:22:17;120.85;;;65.07;;
78895;SDS011;68284;59.124;37.910;2023-11-21T09:24:51;121.68;;;66.00;;
78895;SDS011;68284;59.124;37.910;2023-11-21T09:27:28;126.13;;;65.97;;
78895;SDS011;68284;59.124;37.910;2023-11-21T09:29:58;119.82;;;64.97;;
78895;SDS011;68284;59.124;37.910;2023-11-21T09:32:29;123.35;;;64.95;;
78895;SDS011;68284;59.124;37.910;2023-11-21T09:34:58;121.68;;;64.80;;
78895;SDS011;68284;59.124;37.910;2023-11-21T09:38:04;119.22;;;63.35;;
78895;SDS011;68284;59.124;37.910;2023-11-21T09:41:23;124.47;;;66.47;;
78895;SDS011;68284;59.124;37.910;2023-11-21T09:44:43;121.65;;;63.63;;
78895;SDS011;68284;59.124;37.910;2023-11-21T09:47:52;128.52;;;68.43;;
78895;SDS011;68284;59.124;37.910;2023-11-21T09:50:42;126.85;;;64.38;;
78895;SDS011;68284;59.124;37.910;2023-11-21T09:53:17;117.60;;;62.25;;
78895;SDS011;68284;59.124;37.910;2023-11-21T09:55:57;121.78;;;62.22;;
78895;SDS011;68284;59.124;37.910;2023-11-21T09:59:30;117.75;;;62.50;;
78895;SDS011;68284;59.124;37.910;2023-11-21T10:02:25;116.18;;;64.20;;
78895;SDS011;68284;59.124;37.910;2023-11-21T10:05:14;116.82;;;61.90;;
78895;SDS011;68284;59.124;37.910;2023-11-21T10:07:44;110.90;;;62.97;;
78895;SDS011;68284;59.124;37.910;2023-11-21T10:10:22;108.25;;;60.58;;
78895;SDS011;68284;59.124;37.910;2023-11-21T10:12:56;111.50;;;60.88;;
78895;SDS011;68284;59.124;37.910;2023-11-21T10:15:29;115.10;;;62.05;;
78895;SDS011;68284;59.124;37.910;2023-11-21T10:18:15;113.70;;;62.45;;
78895;SDS011;68284;59.124;37.910;2023-11-21T10:21:22;124.53;;;64.38;;
78895;SDS011;68284;59.124;37.910;2023-11-21T10:23:52;118.82;;;62.70;;
78895;SDS011;68284;59.124;37.910;2023-11-21T10:28:57;124.95;;;66.75;;
78895;SDS011;68284;59.124;37.910;2023-11-21T10:31:34;124.22;;;64.93;;
78895;SDS011;68284;59.124;37.910;2023-11-21T10:34:56;125.25;;;66.18;;
78895;SDS011;68284;59.124;37.910;2023-11-21T10:37:31;125.93;;;67.93;;
78895;SDS011;68284;59.124;37.910;2023-11-21T10:40:34;123.63;;;64.70;;
78895;SDS011;68284;59.124;37.910;2023-11-21T10:43:13;119.70;;;65.28;;
78895;SDS011;68284;59.124;37.910;2023-11-21T10:46:52;118.22;;;61.83;;
78895;SDS011;68284;59.124;37.910;2023-11-21T10:49:38;120.30;;;64.93;;
78895;SDS011;68284;59.124;37.910;2023-11-21T10:52:35;118.55;;;63.28;;
78895;SDS011;68284;59.124;37.910;2023-11-21T10:55:23;119.53;;;64.60;;
78895;SDS011;68284;59.124;37.910;2023-11-21T10:58:15;119.78;;;64.63;;
78895;SDS011;68284;59.124;37.910;2023-11-21T11:01:02;115.60;;;62.33;;
78895;SDS011;68284;59.124;37.910;2023-11-21T11:03:45;114.18;;;61.80;;
78895;SDS011;68284;59.124;37.910;2023-11-21T11:06:26;108.90;;;61.28;;
78895;SDS011;68284;59.124;37.910;2023-11-21T11:09:17;97.70;;;58.53;;
78895;SDS011;68284;59.124;37.910;2023-11-21T11:11:57;79.75;;;52.58;;
78895;SDS011;68284;59.124;37.910;2023-11-21T11:14:33;73.40;;;50.30;;
78895;SDS011;68284;59.124;37.910;2023-11-21T11:17:05;99.78;;;57.65;;
78895;SDS011;68284;59.124;37.910;2023-11-21T11:20:33;109.53;;;60.13;;
78895;SDS011;68284;59.124;37.910;2023-11-21T11:26:36;84.50;;;54.45;;
78895;SDS011;68284;59.124;37.910;2023-11-21T11:33:11;93.75;;;55.80;;
78895;SDS011;68284;59.124;37.910;2023-11-21T11:38:52;85.13;;;56.08;;
78895;SDS011;68284;59.124;37.910;2023-11-21T11:41:43;80.70;;;53.95;;
78895;SDS011;68284;59.124;37.910;2023-11-21T11:47:13;92.65;;;58.42;;
78895;SDS011;68284;59.124;37.910;2023-11-21T11:49:58;88.45;;;56.72;;
78895;SDS011;68284;59.124;37.910;2023-11-21T11:52:44;94.78;;;57.33;;
78895;SDS011;68284;59.124;37.910;2023-11-21T11:55:18;94.32;;;57.08;;
78895;SDS011;68284;59.124;37.910;2023-11-21T11:57:53;97.85;;;58.90;;
78895;SDS011;68284;59.124;37.910;2023-11-21T12:00:22;103.35;;;61.78;;
78895;SDS011;68284;59.124;37.910;2023-11-21T12:03:01;98.07;;;59.65;;
78895;SDS011;68284;59.124;37.910;2023-11-21T12:05:40;99.55;;;61.08;;
78895;SDS011;68284;59.124;37.910;2023-11-21T12:08:14;97.85;;;58.38;;
78895;SDS011;68284;59.124;37.910;2023-11-21T12:10:46;105.80;;;61.13;;
78895;SDS011;68284;59.124;37.910;2023-11-21T12:13:20;104.40;;;61.40;;
78895;SDS011;68284;59.124;37.910;2023-11-21T12:15:52;106.75;;;59.70;;
78895;SDS011;68284;59.124;37.910;2023-11-21T12:18:23;106.18;;;61.58;;
78895;SDS011;68284;59.124;37.910;2023-11-21T12:21:03;110.95;;;62.92;;
78895;SDS011;68284;59.124;37.910;2023-11-21T12:23:31;106.28;;;61.38;;
78895;SDS011;68284;59.124;37.910;2023-11-21T12:26:03;110.68;;;61.83;;
78895;SDS011;68284;59.124;37.910;2023-11-21T12:28:32;104.07;;;59.67;;
78895;SDS011;68284;59.124;37.910;2023-11-21T12:31:01;107.60;;;62.15;;
78895;SDS011;68284;59.124;37.910;2023-11-21T12:33:28;108.70;;;61.17;;
78895;SDS011;68284;59.124;37.910;2023-11-21T12:35:54;105.20;;;62.65;;
78895;SDS011;68284;59.124;37.910;2023-11-21T12:38:24;100.43;;;58.83;;
78895;SDS011;68284;59.124;37.910;2023-11-21T12:40:52;94.63;;;60.25;;
78895;SDS011;68284;59.124;37.910;2023-11-21T12:43:22;94.63;;;58.38;;
78895;SDS011;68284;59.124;37.910;2023-11-21T12:45:50;90.03;;;56.42;;
78895;SDS011;68284;59.124;37.910;2023-11-21T12:48:18;83.68;;;54.75;;
78895;SDS011;68284;59.124;37.910;2023-11-21T12:50:50;90.47;;;57.60;;
78895;SDS011;68284;59.124;37.910;2023-11-21T12:53:22;99.53;;;61.15;;
78895;SDS011;68284;59.124;37.910;2023-11-21T12:55:55;99.22;;;59.75;;
78895;SDS011;68284;59.124;37.910;2023-11-21T12:58:24;101.55;;;59.40;;
78895;SDS011;68284;59.124;37.910;2023-11-21T13:00:53;105.15;;;60.08;;
78895;SDS011;68284;59.124;37.910;2023-11-21T13:03:32;103.25;;;60.92;;
78895;SDS011;68284;59.124;37.910;2023-11-21T13:05:58;100.88;;;59.40;;
78895;SDS011;68284;59.124;37.910;2023-11-21T13:08:25;100.80;;;59.28;;
78895;SDS011;68284;59.124;37.910;2023-11-21T13:10:53;103.45;;;59.67;;
78895;SDS011;68284;59.124;37.910;2023-11-21T13:13:25;102.75;;;59.70;;
78895;SDS011;68284;59.124;37.910;2023-11-21T13:15:59;104.30;;;61.38;;
78895;SDS011;68284;59.124;37.910;2023-11-21T13:18:35;103.20;;;60.42;;
78895;SDS011;68284;59.124;37.910;2023-11-21T13:21:03;101.35;;;59.53;;
78895;SDS011;68284;59.124;37.910;2023-11-21T13:23:39;100.28;;;58.95;;
78895;SDS011;68284;59.124;37.910;2023-11-21T13:26:07;103.25;;;59.40;;
78895;SDS011;68284;59.124;37.910;2023-11-21T13:28:37;99.40;;;57.75;;
78895;SDS011;68284;59.124;37.910;2023-11-21T13:31:05;107.07;;;60.88;;
78895;SDS011;68284;59.124;37.910;2023-11-21T13:33:37;105.05;;;59.05;;
78895;SDS011;68284;59.124;37.910;2023-11-21T13:36:05;101.95;;;58.90;;
78895;SDS011;68284;59.124;37.910;2023-11-21T13:38:33;103.00;;;63.00;;
78895;SDS011;68284;59.124;37.910;2023-11-21T13:41:01;96.80;;;57.30;;
78895;SDS011;68284;59.124;37.910;2023-11-21T13:43:28;101.18;;;58.90;;
78895;SDS011;68284;59.124;37.910;2023-11-21T13:45:57;109.20;;;59.55;;
78895;SDS011;68284;59.124;37.910;2023-11-21T13:48:38;103.70;;;59.97;;
78895;SDS011;68284;59.124;37.910;2023-11-21T13:51:16;102.57;;;59.50;;
78895;SDS011;68284;59.124;37.910;2023-11-21T13:53:47;101.78;;;58.78;;
78895;SDS011;68284;59.124;37.910;2023-11-21T13:56:21;100.05;;;58.53;;
78895;SDS011;68284;59.124;37.910;2023-11-21T13:59:21;92.85;;;56.67;;
78895;SDS011;68284;59.124;37.910;2023-11-21T14:05:17;103.07;;;59.85;;
78895;SDS011;68284;59.124;37.910;2023-11-21T14:08:02;105.40;;;61.08;;
78895;SDS011;68284;59.124;37.910;2023-11-21T14:10:33;97.93;;;58.92;;
78895;SDS011;68284;59.124;37.910;2023-11-21T14:13:09;100.60;;;59.92;;
78895;SDS011;68284;59.124;37.910;2023-11-21T14:15:38;95.93;;;57.97;;
78895;SDS011;68284;59.124;37.910;2023-11-21T14:18:13;93.25;;;57.25;;
78895;SDS011;68284;59.124;37.910;2023-11-21T14:20:43;94.15;;;58.53;;
78895;SDS011;68284;59.124;37.910;2023-11-21T14:23:18;98.80;;;61.63;;
78895;SDS011;68284;59.124;37.910;2023-11-21T14:26:11;100.18;;;58.38;;
78895;SDS011;68284;59.124;37.910;2023-11-21T14:28:41;98.85;;;58.90;;
78895;SDS011;68284;59.124;37.910;2023-11-21T14:31:14;94.03;;;56.40;;
78895;SDS011;68284;59.124;37.910;2023-11-21T14:33:43;99.75;;;58.35;;
78895;SDS011;68284;59.124;37.910;2023-11-21T14:36:17;96.43;;;56.58;;
78895;SDS011;68284;59.124;37.910;2023-11-21T14:38:45;93.10;;;56.55;;
78895;SDS011;68284;59.124;37.910;2023-11-21T14:41:32;95.45;;;57.35;;
78895;SDS011;68284;59.124;37.910;2023-11-21T14:44:01;96.40;;;56.75;;
78895;SDS011;68284;59.124;37.910;2023-11-21T14:59:18;103.03;;;59.13;;
78895;SDS011;68284;59.124;37.910;2023-11-21T15:11:41;98.55;;;57.97;;
78895;SDS011;68284;59.124;37.910;2023-11-21T15:17:27;88.32;;;56.55;;
78895;SDS011;68284;59.124;37.910;2023-11-21T15:20:55;87.35;;;54.55;;
78895;SDS011;68284;59.124;37.910;2023-11-21T15:24:05;89.95;;;57.42;;
78895;SDS011;68284;59.124;37.910;2023-11-21T15:26:36;83.60;;;55.05;;
78895;SDS011;68284;59.124;37.910;2023-11-21T15:29:03;81.47;;;53.85;;
78895;SDS011;68284;59.124;37.910;2023-11-21T15:31:33;76.07;;;51.33;;
78895;SDS011;68284;59.124;37.910;2023-11-21T15:34:02;73.82;;;52.10;;
78895;SDS011;68284;59.124;37.910;2023-11-21T15:36:31;72.40;;;50.58;;
78895;SDS011;68284;59.124;37.910;2023-11-21T15:42:08;85.25;;;54.03;;
78895;SDS011;68284;59.124;37.910;2023-11-21T15:44:36;82.03;;;54.47;;
78895;SDS011;68284;59.124;37.910;2023-11-21T15:47:03;75.18;;;52.42;;